Time;durP1;ratioP1;P1;durP2;ratioP2;P2;SDS_P1;SDS_P2;PMS_P1;PMS_P2;Temp;Humidity;BMP_temperature;BMP_pressure;BME280_temperature;BME280_humidity;BME280_pressure;Samples;Min_cycle;Max_cycle;Signal;HPM_P1;HPM_P2
2022/03/16 00:00:15;;;;;;;60.55;33.67;;;7.50;92.90;;;;;;6094587;23;93285;-73
2022/03/16 00:02:46;;;;;;;62.58;31.45;;;7.50;92.90;;;;;;6095007;23;93011;-69
2022/03/16 00:05:13;;;;;;;61.38;32.33;;;7.40;92.90;;;;;;6094724;23;92331;-70
2022/03/16 00:07:41;;;;;;;60.47;32.13;;;7.40;92.90;;;;;;6094932;23;92386;-73
2022/03/16 00:10:09;;;;;;;62.25;33.20;;;7.40;92.90;;;;;;6093173;23;95283;-73
2022/03/16 00:12:38;;;;;;;68.93;33.72;;;7.40;92.90;;;;;;6094400;23;95211;-69
2022/03/16 00:15:05;;;;;;;59.15;32.53;;;7.40;92.90;;;;;;6094968;23;92703;-70
2022/03/16 00:17:33;;;;;;;60.13;33.50;;;7.40;93.00;;;;;;6094625;23;92413;-69
2022/03/16 00:20:00;;;;;;;68.68;34.05;;;7.40;93.00;;;;;;6093304;23;93239;-70
2022/03/16 00:22:27;;;;;;;66.90;32.90;;;7.30;93.00;;;;;;6094647;23;92724;-69
2022/03/16 00:24:54;;;;;;;53.53;31.30;;;7.30;93.20;;;;;;6094485;23;92453;-70
2022/03/16 00:27:21;;;;;;;61.40;32.97;;;7.30;93.00;;;;;;6094409;23;102946;-73
2022/03/16 00:29:48;;;;;;;62.80;32.30;;;7.30;93.00;;;;;;6093320;23;95813;-74
2022/03/16 00:32:15;;;;;;;56.25;31.08;;;7.30;93.00;;;;;;6093257;23;93050;-74
2022/03/16 00:34:42;;;;;;;62.75;31.52;;;7.20;93.00;;;;;;6091360;23;94717;-70
2022/03/16 00:37:09;;;;;;;59.60;32.10;;;7.20;93.00;;;;;;6093105;23;92935;-70
2022/03/16 00:39:37;;;;;;;62.22;32.03;;;7.20;93.00;;;;;;6093200;23;93140;-69
2022/03/16 00:42:05;;;;;;;57.60;30.40;;;7.20;92.90;;;;;;6068509;23;95460;-74
2022/03/16 00:44:35;;;;;;;56.33;31.60;;;7.20;92.90;;;;;;6092647;23;92839;-69
2022/03/16 00:47:04;;;;;;;58.88;32.80;;;7.10;92.80;;;;;;6092904;23;92572;-70
2022/03/16 00:49:31;;;;;;;53.33;31.73;;;7.10;92.90;;;;;;6093324;23;95728;-70
2022/03/16 00:51:58;;;;;;;63.40;31.88;;;7.10;92.90;;;;;;6093591;23;104372;-69
2022/03/16 00:54:26;;;;;;;68.95;32.28;;;7.10;92.90;;;;;;6069769;23;92717;-69
2022/03/16 00:56:54;;;;;;;63.47;32.60;;;7.10;93.00;;;;;;6069209;23;92424;-69
2022/03/16 00:59:21;;;;;;;66.22;31.98;;;7.00;92.90;;;;;;6093904;23;94727;-70
2022/03/16 01:01:48;;;;;;;63.30;32.72;;;7.00;93.00;;;;;;6093232;23;98024;-69
2022/03/16 01:04:15;;;;;;;64.63;31.88;;;7.00;93.00;;;;;;6094378;23;92871;-69
2022/03/16 01:06:42;;;;;;;62.83;31.70;;;7.00;93.10;;;;;;6069249;23;92447;-70
2022/03/16 01:09:11;;;;;;;65.03;33.30;;;7.00;93.10;;;;;;6094024;23;93305;-69
2022/03/16 01:11:38;;;;;;;65.05;32.13;;;7.00;93.10;;;;;;6095582;23;92638;-70
2022/03/16 01:14:05;;;;;;;64.75;32.72;;;7.00;93.10;;;;;;6094089;23;92518;-69
2022/03/16 01:16:35;;;;;;;63.85;33.38;;;6.90;93.10;;;;;;6069939;23;91699;-69
2022/03/16 01:19:02;;;;;;;61.10;32.22;;;6.90;93.10;;;;;;6093720;23;92405;-69
2022/03/16 01:21:30;;;;;;;64.45;33.70;;;6.90;93.10;;;;;;6095488;23;92824;-69
2022/03/16 01:23:57;;;;;;;66.28;33.72;;;6.90;93.20;;;;;;6092144;23;94882;-70
2022/03/16 01:26:24;;;;;;;59.75;31.05;;;6.80;93.20;;;;;;6093737;23;93689;-69
2022/03/16 01:28:51;;;;;;;62.72;30.70;;;6.80;93.20;;;;;;6068991;23;95701;-69
2022/03/16 01:31:21;;;;;;;65.05;31.85;;;6.80;93.50;;;;;;6093480;23;95446;-70
2022/03/16 01:33:49;;;;;;;61.42;32.45;;;6.80;93.20;;;;;;6093487;23;92783;-69
2022/03/16 01:36:16;;;;;;;63.58;31.48;;;6.70;93.20;;;;;;6093959;23;92730;-70
2022/03/16 01:38:44;;;;;;;63.03;32.38;;;6.70;93.20;;;;;;6118023;23;95699;-70
2022/03/16 01:41:11;;;;;;;64.18;31.98;;;6.70;93.20;;;;;;6095739;23;92946;-69
2022/03/16 01:43:38;;;;;;;68.90;33.20;;;6.70;93.20;;;;;;6093477;23;92556;-69
2022/03/16 01:46:05;;;;;;;61.97;29.60;;;6.70;93.20;;;;;;6095254;23;92422;-69
2022/03/16 01:48:32;;;;;;;65.05;30.70;;;6.60;93.20;;;;;;6092263;23;95440;-70
2022/03/16 01:51:00;;;;;;;61.30;30.88;;;6.60;93.20;;;;;;6093210;23;98278;-70
2022/03/16 01:53:27;;;;;;;61.33;29.95;;;6.60;93.20;;;;;;6095455;23;92398;-70
2022/03/16 01:55:54;;;;;;;61.80;30.55;;;6.60;93.10;;;;;;6093553;23;92487;-69
2022/03/16 01:58:21;;;;;;;65.30;31.45;;;6.50;93.00;;;;;;6118246;23;94518;-70
2022/03/16 02:00:51;;;;;;;64.13;30.35;;;6.50;93.10;;;;;;6092633;23;95317;-70
2022/03/16 02:03:18;;;;;;;56.97;29.92;;;6.50;93.00;;;;;;6093384;23;92805;-70
2022/03/16 02:05:45;;;;;;;67.82;31.20;;;6.40;93.00;;;;;;6094441;23;92144;-69
2022/03/16 02:08:12;;;;;;;66.88;32.40;;;6.40;93.00;;;;;;6095191;23;93162;-69
2022/03/16 02:10:40;;;;;;;61.03;31.27;;;6.40;93.00;;;;;;6118337;23;95527;-69
2022/03/16 02:13:11;;;;;;;63.40;30.35;;;6.40;92.90;;;;;;6067945;23;94892;-73
2022/03/16 02:15:39;;;;;;;68.85;29.98;;;6.30;92.80;;;;;;6094533;23;92434;-74
2022/03/16 02:18:06;;;;;;;65.07;31.50;;;6.30;92.90;;;;;;6094166;23;93292;-74
2022/03/16 02:20:33;;;;;;;55.97;30.08;;;6.30;92.90;;;;;;6096042;23;92782;-74
2022/03/16 02:23:03;;;;;;;60.97;28.88;;;6.30;92.90;;;;;;6095628;23;99394;-74
2022/03/16 02:25:30;;;;;;;62.10;29.75;;;6.20;92.80;;;;;;6094607;23;92315;-74
2022/03/16 02:27:58;;;;;;;77.82;32.58;;;6.10;92.70;;;;;;6095850;23;92406;-74
2022/03/16 02:30:28;;;;;;;67.97;32.40;;;6.10;92.70;;;;;;6096230;23;92961;-74
2022/03/16 02:32:56;;;;;;;58.40;28.33;;;6.10;92.80;;;;;;6095968;23;92434;-74
2022/03/16 02:35:23;;;;;;;64.05;29.90;;;6.10;92.80;;;;;;6094686;23;92917;-74
2022/03/16 02:37:50;;;;;;;58.88;29.35;;;6.00;92.70;;;;;;6094003;23;95636;-74
2022/03/16 02:40:20;;;;;;;68.20;29.85;;;6.00;92.80;;;;;;6094395;23;95259;-74
2022/03/16 02:42:50;;;;;;;62.25;29.80;;;6.00;92.70;;;;;;6095974;23;92375;-73
2022/03/16 02:45:25;;;;;;;57.45;28.23;;;6.00;92.60;;;;;;6095706;23;92799;-73
2022/03/16 02:47:52;;;;;;;53.13;27.27;;;5.90;92.50;;;;;;6094023;23;93166;-75
2022/03/16 02:50:19;;;;;;;71.07;30.65;;;5.90;92.50;;;;;;6095787;23;92342;-74
2022/03/16 02:52:47;;;;;;;71.93;31.13;;;5.80;92.50;;;;;;6093163;23;104588;-74
2022/03/16 02:55:34;;;;;;;75.50;31.05;;;5.80;92.60;;;;;;6096211;23;91694;-73
2022/03/16 02:58:01;;;;;;;66.03;31.05;;;5.80;92.70;;;;;;6093272;23;104378;-74
2022/03/16 03:00:28;;;;;;;90.80;36.53;;;5.80;92.70;;;;;;6095648;23;93002;-74
2022/03/16 03:02:56;;;;;;;64.53;30.63;;;5.80;92.70;;;;;;6092242;23;94915;-74
2022/03/16 03:05:23;;;;;;;62.65;29.83;;;5.80;92.80;;;;;;6094351;23;92600;-74
2022/03/16 03:07:50;;;;;;;61.70;29.75;;;5.80;92.80;;;;;;6094058;23;93073;-73
2022/03/16 03:10:17;;;;;;;63.97;30.40;;;5.80;92.80;;;;;;6095315;23;93037;-73
2022/03/16 03:12:44;;;;;;;66.28;30.83;;;5.70;92.70;;;;;;6069498;23;92425;-74
2022/03/16 03:15:13;;;;;;;72.05;30.95;;;5.70;92.80;;;;;;6094135;23;92394;-73
2022/03/16 03:17:41;;;;;;;57.00;27.08;;;5.70;92.90;;;;;;6095511;23;93113;-73
2022/03/16 03:20:09;;;;;;;68.30;31.60;;;5.80;92.90;;;;;;6095847;23;96709;-74
2022/03/16 03:22:36;;;;;;;61.63;30.23;;;5.80;92.90;;;;;;6094240;23;92418;-73
2022/03/16 03:25:04;;;;;;;55.92;27.38;;;5.80;93.00;;;;;;6094127;23;92924;-73
2022/03/16 03:27:32;;;;;;;62.42;30.08;;;5.80;92.90;;;;;;6092384;23;95529;-73
2022/03/16 03:29:59;;;;;;;58.35;27.92;;;5.80;92.80;;;;;;6094788;23;106244;-73
2022/03/16 03:32:27;;;;;;;67.32;31.50;;;5.80;92.70;;;;;;6095276;23;92505;-70
2022/03/16 03:34:55;;;;;;;75.38;33.67;;;5.80;92.70;;;;;;6093265;23;92401;-70
2022/03/16 03:37:25;;;;;;;81.80;36.13;;;5.90;92.80;;;;;;6068944;23;96220;-69
2022/03/16 03:39:52;;;;;;;76.43;32.05;;;5.90;92.80;;;;;;6093142;23;92922;-70
2022/03/16 03:42:19;;;;;;;77.72;34.85;;;5.90;92.80;;;;;;6093315;23;93037;-69
2022/03/16 03:44:46;;;;;;;66.95;32.67;;;5.90;92.80;;;;;;6093685;23;91724;-69
2022/03/16 03:47:13;;;;;;;77.35;33.88;;;5.90;92.90;;;;;;6094340;23;95235;-70
2022/03/16 03:49:42;;;;;;;67.68;31.92;;;6.00;92.90;;;;;;6094783;23;93139;-69
2022/03/16 03:52:10;;;;;;;78.80;35.00;;;6.00;92.90;;;;;;6093188;23;94831;-69
2022/03/16 03:54:37;;;;;;;69.65;31.92;;;6.00;93.00;;;;;;6093063;23;92465;-69
2022/03/16 03:57:04;;;;;;;81.05;33.38;;;6.00;93.00;;;;;;6093372;23;93302;-74
2022/03/16 03:59:31;;;;;;;82.32;34.60;;;5.90;93.00;;;;;;6069256;23;95704;-74
2022/03/16 04:01:58;;;;;;;72.32;31.63;;;5.90;93.00;;;;;;6069313;23;92454;-74
2022/03/16 04:04:25;;;;;;;80.18;34.10;;;5.90;93.10;;;;;;6095708;23;92694;-74
2022/03/16 04:06:53;;;;;;;88.15;35.15;;;5.90;93.10;;;;;;6093152;23;106165;-74
2022/03/16 04:09:20;;;;;;;91.15;37.75;;;5.90;93.10;;;;;;6095476;23;93071;-74
2022/03/16 04:11:47;;;;;;;87.43;37.28;;;5.90;93.10;;;;;;6093721;23;92420;-70
2022/03/16 04:14:16;;;;;;;100.00;39.50;;;5.90;93.20;;;;;;6094665;23;92924;-70
2022/03/16 04:16:43;;;;;;;90.53;36.78;;;5.90;93.30;;;;;;6091047;23;98162;-70
2022/03/16 04:19:10;;;;;;;104.53;40.88;;;5.90;93.50;;;;;;6068005;23;97924;-70
2022/03/16 04:21:37;;;;;;;108.03;40.88;;;5.80;93.60;;;;;;6092963;23;93159;-70
2022/03/16 04:24:04;;;;;;;102.18;39.15;;;5.80;93.70;;;;;;6093054;23;92455;-70
2022/03/16 04:26:32;;;;;;;104.03;41.60;;;5.80;93.70;;;;;;6069542;23;95520;-70
2022/03/16 04:28:58;;;;;;;96.65;40.10;;;5.80;93.80;;;;;;6069652;23;95737;-70
2022/03/16 04:31:25;;;;;;;100.90;40.72;;;5.80;94.10;;;;;;6068825;23;106994;-69
2022/03/16 04:33:52;;;;;;;116.38;43.67;;;5.80;94.10;;;;;;6094501;23;91728;-69
2022/03/16 04:36:19;;;;;;;112.03;39.70;;;5.80;94.20;;;;;;6093857;23;93199;-70
2022/03/16 04:38:46;;;;;;;99.28;40.58;;;5.80;94.30;;;;;;6095658;23;92813;-70
2022/03/16 04:41:13;;;;;;;91.22;37.47;;;5.80;94.30;;;;;;6068599;23;94841;-73
2022/03/16 04:43:40;;;;;;;108.75;41.67;;;5.80;94.30;;;;;;6070192;23;92446;-73
2022/03/16 04:46:07;;;;;;;117.82;42.63;;;5.80;94.30;;;;;;6095547;23;93269;-69
2022/03/16 04:48:34;;;;;;;105.75;43.63;;;5.70;94.30;;;;;;6094206;23;94400;-73
2022/03/16 04:51:02;;;;;;;109.97;41.88;;;5.70;94.40;;;;;;6096194;23;92394;-74
2022/03/16 04:53:29;;;;;;;118.45;45.28;;;5.70;94.40;;;;;;6096223;23;92441;-73
2022/03/16 04:55:56;;;;;;;105.53;42.15;;;5.70;94.50;;;;;;6094439;23;103695;-73
2022/03/16 04:58:23;;;;;;;116.60;41.95;;;5.80;94.60;;;;;;6095117;23;93082;-73
2022/03/16 05:00:50;;;;;;;110.20;42.17;;;5.70;94.60;;;;;;6094832;23;92430;-73
2022/03/16 05:03:17;;;;;;;110.63;42.33;;;5.70;94.90;;;;;;6094162;23;93656;-74
2022/03/16 05:05:46;;;;;;;113.53;43.72;;;5.70;94.60;;;;;;6093218;23;95666;-73
2022/03/16 05:08:14;;;;;;;97.93;40.95;;;5.70;94.70;;;;;;6095840;23;95457;-73
2022/03/16 05:10:40;;;;;;;100.45;38.55;;;5.70;94.70;;;;;;6094691;23;92406;-74
2022/03/16 05:13:07;;;;;;;97.88;38.78;;;5.70;94.70;;;;;;6096349;23;92644;-73
2022/03/16 05:15:34;;;;;;;108.43;42.28;;;5.70;94.80;;;;;;6094260;23;95618;-73
2022/03/16 05:18:01;;;;;;;111.63;40.80;;;5.70;94.70;;;;;;6094321;23;95760;-73
2022/03/16 05:20:29;;;;;;;99.28;38.72;;;5.70;94.70;;;;;;6094510;23;92323;-74
2022/03/16 05:22:56;;;;;;;108.22;41.53;;;5.80;94.70;;;;;;6095346;23;91722;-74
2022/03/16 05:25:27;;;;;;;111.85;42.22;;;5.80;94.70;;;;;;6094473;23;93159;-73
2022/03/16 05:27:54;;;;;;;113.03;41.45;;;5.80;94.70;;;;;;6096258;23;96028;-73
2022/03/16 05:30:23;;;;;;;108.05;43.05;;;5.80;94.70;;;;;;6093121;23;94815;-73
2022/03/16 05:32:52;;;;;;;118.85;44.33;;;5.80;94.80;;;;;;6096261;23;92332;-73
2022/03/16 05:35:19;;;;;;;94.70;37.97;;;5.90;94.80;;;;;;6094329;23;95877;-73
2022/03/16 05:37:46;;;;;;;119.13;45.20;;;5.80;94.70;;;;;;6095952;23;92965;-73
2022/03/16 05:40:13;;;;;;;116.43;42.95;;;5.80;94.80;;;;;;6096324;23;92301;-74
2022/03/16 05:42:40;;;;;;;119.25;44.53;;;5.90;94.80;;;;;;6095981;23;92401;-73
2022/03/16 05:45:08;;;;;;;114.88;41.58;;;5.90;94.70;;;;;;6095953;23;92430;-73
2022/03/16 05:47:35;;;;;;;103.00;42.25;;;5.90;94.70;;;;;;6096150;23;91881;-73
2022/03/16 05:50:03;;;;;;;113.78;42.03;;;5.90;94.70;;;;;;6096161;23;92290;-73
2022/03/16 05:52:34;;;;;;;95.22;38.63;;;6.00;94.70;;;;;;6094619;23;92890;-73
2022/03/16 05:55:02;;;;;;;88.97;37.38;;;6.00;94.60;;;;;;6094336;23;95790;-73
2022/03/16 05:57:29;;;;;;;101.03;37.75;;;6.00;94.60;;;;;;6095412;23;95334;-73
2022/03/16 05:59:56;;;;;;;94.97;38.47;;;6.10;94.60;;;;;;6069373;23;92821;-70
2022/03/16 06:02:23;;;;;;;94.53;39.88;;;6.10;94.50;;;;;;6092667;23;92405;-69
2022/03/16 06:04:51;;;;;;;107.30;40.35;;;6.10;94.50;;;;;;6093224;23;94104;-70
2022/03/16 06:07:18;;;;;;;97.88;40.60;;;6.10;94.40;;;;;;6094950;23;93122;-70
2022/03/16 06:09:45;;;;;;;94.63;40.22;;;6.10;94.30;;;;;;6095432;23;92359;-69
2022/03/16 06:12:12;;;;;;;85.10;39.10;;;6.20;94.30;;;;;;6094122;23;91741;-70
2022/03/16 06:14:39;;;;;;;104.10;42.38;;;6.20;94.20;;;;;;6068722;23;95684;-69
2022/03/16 06:17:06;;;;;;;97.43;40.95;;;6.10;94.20;;;;;;6093563;23;93094;-70
2022/03/16 06:19:33;;;;;;;106.22;43.75;;;6.20;94.20;;;;;;6092101;23;95466;-69
2022/03/16 06:22:00;;;;;;;79.63;35.75;;;6.20;94.20;;;;;;6069293;23;92422;-69
2022/03/16 06:24:28;;;;;;;80.88;38.17;;;6.20;94.10;;;;;;6094811;23;93115;-69
2022/03/16 06:26:55;;;;;;;82.63;37.28;;;6.30;94.20;;;;;;6095268;23;93065;-70
2022/03/16 06:29:22;;;;;;;81.68;38.45;;;6.30;94.10;;;;;;6093232;23;92412;-70
2022/03/16 06:31:49;;;;;;;80.30;37.88;;;6.40;94.10;;;;;;6093862;23;92361;-70
2022/03/16 06:34:16;;;;;;;83.35;38.90;;;6.40;94.00;;;;;;6094940;23;95792;-70
2022/03/16 06:36:43;;;;;;;81.53;37.33;;;6.40;94.00;;;;;;6095185;23;93053;-70
2022/03/16 06:39:10;;;;;;;77.72;38.15;;;6.40;93.90;;;;;;6095189;23;92432;-70
2022/03/16 06:41:37;;;;;;;76.50;37.42;;;6.50;94.10;;;;;;6094994;23;92287;-69
2022/03/16 06:44:05;;;;;;;76.15;37.92;;;6.50;93.80;;;;;;6092350;23;95748;-69
2022/03/16 06:46:32;;;;;;;75.63;39.53;;;6.50;93.70;;;;;;6094318;23;95582;-70
2022/03/16 06:48:59;;;;;;;71.28;36.72;;;6.60;93.70;;;;;;6092756;23;105740;-70
2022/03/16 06:51:26;;;;;;;65.30;35.50;;;6.60;93.60;;;;;;6094870;23;92391;-69
2022/03/16 06:53:53;;;;;;;68.72;34.25;;;6.60;93.50;;;;;;6095035;23;93010;-69
2022/03/16 06:56:20;;;;;;;61.90;33.60;;;6.70;93.50;;;;;;6093238;23;94081;-70
2022/03/16 06:58:48;;;;;;;58.13;32.80;;;6.70;93.50;;;;;;6094526;23;92657;-69
2022/03/16 07:01:15;;;;;;;58.83;32.28;;;6.70;93.40;;;;;;6095743;23;92115;-70
2022/03/16 07:03:43;;;;;;;59.13;32.67;;;6.80;93.30;;;;;;6092853;23;92397;-70
2022/03/16 07:06:11;;;;;;;57.22;32.03;;;6.90;93.30;;;;;;6093350;23;92417;-69
2022/03/16 07:08:38;;;;;;;58.90;31.33;;;7.00;93.20;;;;;;6091979;23;95298;-69
2022/03/16 07:11:07;;;;;;;54.83;29.95;;;7.00;93.10;;;;;;6095111;23;92383;-70
2022/03/16 07:13:34;;;;;;;54.80;31.10;;;7.10;93.00;;;;;;6093166;23;93207;-70
2022/03/16 07:16:02;;;;;;;60.10;32.85;;;7.20;92.90;;;;;;6094833;23;92977;-70
2022/03/16 07:18:29;;;;;;;56.58;32.90;;;7.30;92.70;;;;;;6094734;23;92430;-70
2022/03/16 07:20:56;;;;;;;55.50;32.10;;;7.30;92.40;;;;;;6094946;23;92396;-70
2022/03/16 07:23:23;;;;;;;56.28;33.65;;;7.30;92.40;;;;;;6094305;23;106750;-70
2022/03/16 07:25:51;;;;;;;62.60;32.80;;;7.50;92.40;;;;;;6093129;23;96363;-70
2022/03/16 07:28:19;;;;;;;56.05;31.77;;;7.50;92.20;;;;;;6069212;23;92490;-70
2022/03/16 07:30:47;;;;;;;56.28;32.45;;;7.60;92.10;;;;;;6094712;23;92563;-70
2022/03/16 07:33:14;;;;;;;53.08;31.67;;;7.60;92.10;;;;;;6091733;23;95441;-70
2022/03/16 07:35:42;;;;;;;54.40;31.40;;;7.70;92.00;;;;;;6093056;23;95622;-70
2022/03/16 07:38:09;;;;;;;50.63;29.60;;;7.80;91.80;;;;;;6093417;23;92452;-70
2022/03/16 07:40:37;;;;;;;49.60;30.10;;;7.90;91.60;;;;;;6094581;23;92471;-70
2022/03/16 07:43:05;;;;;;;50.65;29.70;;;7.90;91.60;;;;;;6068706;23;95853;-70
2022/03/16 07:45:33;;;;;;;45.22;30.50;;;8.00;91.50;;;;;;6092373;23;95789;-70
2022/03/16 07:48:00;;;;;;;42.70;26.50;;;8.20;91.40;;;;;;6094963;23;92891;-70
2022/03/16 07:50:28;;;;;;;40.55;26.42;;;8.30;91.30;;;;;;6069499;23;91756;-70
2022/03/16 07:52:55;;;;;;;40.20;27.13;;;8.50;90.90;;;;;;6093209;23;93577;-70
2022/03/16 07:55:22;;;;;;;40.33;27.00;;;8.60;90.90;;;;;;6094867;23;92912;-70
2022/03/16 07:57:50;;;;;;;46.03;27.98;;;8.80;90.60;;;;;;6042508;23;94922;-70
2022/03/16 08:00:18;;;;;;;39.67;25.73;;;8.90;90.20;;;;;;6092596;23;92506;-69
2022/03/16 08:02:45;;;;;;;36.40;25.58;;;9.10;90.20;;;;;;6094124;23;93337;-70
2022/03/16 08:05:14;;;;;;;29.67;22.67;;;9.50;90.20;;;;;;6068532;23;95735;-70
2022/03/16 08:07:41;;;;;;;31.42;23.38;;;10.00;89.00;;;;;;6092992;23;92604;-70
2022/03/16 08:10:09;;;;;;;30.33;26.23;;;10.50;87.60;;;;;;6094141;23;101527;-70
2022/03/16 08:12:36;;;;;;;31.15;23.98;;;11.00;85.70;;;;;;6092389;23;96196;-70
2022/03/16 08:15:07;;;;;;;31.58;24.48;;;11.60;84.10;;;;;;6093482;23;93610;-70
2022/03/16 08:17:34;;;;;;;29.13;22.70;;;12.20;82.50;;;;;;6094521;23;92781;-70
2022/03/16 08:20:01;;;;;;;32.42;24.95;;;12.50;80.00;;;;;;6094584;23;92414;-70
2022/03/16 08:22:29;;;;;;;35.92;25.58;;;12.60;79.10;;;;;;6116018;23;98307;-70
2022/03/16 08:24:58;;;;;;;30.02;23.95;;;12.60;78.90;;;;;;6092350;23;98121;-70
2022/03/16 08:27:26;;;;;;;31.15;24.75;;;12.50;79.00;;;;;;6094516;23;92386;-70
2022/03/16 08:29:54;;;;;;;33.20;26.00;;;12.50;78.70;;;;;;6094398;23;92827;-70
2022/03/16 08:32:22;;;;;;;28.73;23.75;;;12.40;79.00;;;;;;6094364;23;92411;-70
2022/03/16 08:34:50;;;;;;;28.70;23.25;;;12.40;79.10;;;;;;6092565;23;93087;-70
2022/03/16 08:37:18;;;;;;;30.35;24.25;;;12.30;79.10;;;;;;6094539;23;92306;-70
2022/03/16 08:39:46;;;;;;;27.38;21.23;;;12.30;79.40;;;;;;6092718;23;91868;-70
2022/03/16 08:42:14;;;;;;;30.33;24.23;;;12.30;79.20;;;;;;6092698;23;93154;-71
2022/03/16 08:44:43;;;;;;;29.20;23.42;;;12.20;79.00;;;;;;6091728;23;104370;-70
2022/03/16 08:47:11;;;;;;;30.83;23.75;;;12.10;79.10;;;;;;6093009;23;94803;-71
2022/03/16 08:49:38;;;;;;;29.25;22.92;;;12.00;79.50;;;;;;6092621;23;92480;-70
2022/03/16 08:52:06;;;;;;;30.77;23.98;;;12.00;80.00;;;;;;6092872;23;93343;-70
2022/03/16 08:54:33;;;;;;;31.20;23.33;;;11.90;79.90;;;;;;6093816;23;92899;-72
2022/03/16 08:57:01;;;;;;;27.92;21.73;;;11.80;80.20;;;;;;6092258;23;92407;-70
2022/03/16 08:59:28;;;;;;;29.38;22.90;;;11.70;80.70;;;;;;6092759;23;92496;-71
2022/03/16 09:01:55;;;;;;;28.20;23.17;;;11.60;81.10;;;;;;6091751;23;94273;-70
2022/03/16 09:04:22;;;;;;;32.45;22.73;;;11.60;81.40;;;;;;6117734;23;95422;-70
2022/03/16 09:06:49;;;;;;;27.02;22.42;;;11.50;81.90;;;;;;6092483;23;92498;-72
2022/03/16 09:09:16;;;;;;;30.25;22.90;;;11.50;82.10;;;;;;6094296;23;92393;-71
2022/03/16 09:11:43;;;;;;;28.10;21.17;;;11.40;82.40;;;;;;6093685;23;94794;-71
2022/03/16 09:14:10;;;;;;;28.65;22.35;;;11.30;82.40;;;;;;6093845;23;95315;-70
2022/03/16 09:16:37;;;;;;;27.08;21.58;;;11.20;83.10;;;;;;6044832;23;102850;-70
2022/03/16 09:19:04;;;;;;;24.23;20.33;;;11.20;83.00;;;;;;6093920;23;92457;-70
2022/03/16 09:21:31;;;;;;;30.08;21.67;;;11.20;82.90;;;;;;6093550;23;94196;-73
2022/03/16 09:23:59;;;;;;;24.48;18.75;;;11.30;83.60;;;;;;6095097;23;93065;-70
2022/03/16 09:26:28;;;;;;;26.70;19.17;;;11.30;82.30;;;;;;6095758;23;92381;-70
2022/03/16 09:28:55;;;;;;;23.70;17.80;;;11.30;82.40;;;;;;6094197;23;91788;-70
2022/03/16 09:31:22;;;;;;;24.38;17.30;;;11.40;82.10;;;;;;6095500;23;93132;-70
2022/03/16 09:33:49;;;;;;;24.55;17.17;;;11.40;81.90;;;;;;6095042;23;92931;-70
2022/03/16 09:36:17;;;;;;;20.88;15.35;;;11.50;81.90;;;;;;6092322;23;94732;-69
2022/03/16 09:38:44;;;;;;;20.85;16.05;;;11.60;81.60;;;;;;6095254;23;92897;-70
2022/03/16 09:41:11;;;;;;;18.50;14.57;;;11.60;79.90;;;;;;6095241;23;93209;-70
2022/03/16 09:43:40;;;;;;;22.25;15.90;;;11.60;79.20;;;;;;6095283;23;92403;-70
2022/03/16 09:46:11;;;;;;;20.20;15.25;;;11.80;79.00;;;;;;6095255;23;92321;-70
2022/03/16 09:48:39;;;;;;;18.02;14.80;;;12.00;78.40;;;;;;6093904;23;92488;-70
2022/03/16 09:51:09;;;;;;;18.55;15.02;;;12.10;76.70;;;;;;6094912;23;93126;-70
2022/03/16 09:53:37;;;;;;;23.50;14.60;;;12.20;76.00;;;;;;6118554;23;95737;-70
2022/03/16 09:56:05;;;;;;;18.65;14.57;;;12.30;76.20;;;;;;6093349;23;92324;-70
2022/03/16 09:58:32;;;;;;;16.17;13.15;;;12.30;74.80;;;;;;6093926;23;92407;-70
2022/03/16 10:01:00;;;;;;;16.70;12.20;;;12.30;75.60;;;;;;6093235;23;95689;-73
2022/03/16 10:03:30;;;;;;;18.67;13.50;;;12.50;75.20;;;;;;6094661;23;95690;-70
2022/03/16 10:05:58;;;;;;;17.00;12.27;;;12.60;75.00;;;;;;6095169;23;92366;-71
2022/03/16 10:08:34;;;;;;;16.98;11.57;;;12.70;75.00;;;;;;6093384;23;92502;-71
2022/03/16 10:13:59;;;;;;;16.80;13.70;;;12.90;72.90;;;;;;6095006;23;92898;-70
2022/03/16 10:17:43;;;;;;;16.77;14.15;;;12.90;72.90;;;;;;6093783;23;92426;-72
2022/03/16 10:19:13;;;;;;;17.55;13.13;;;12.90;72.50;;;;;;6095668;23;91621;-72
2022/03/16 10:21:40;;;;;;;18.08;14.68;;;12.90;72.60;;;;;;6092612;23;102158;-70
2022/03/16 10:24:07;;;;;;;19.08;15.15;;;12.90;73.00;;;;;;6093313;23;92955;-71
2022/03/16 10:26:34;;;;;;;19.30;12.38;;;13.00;72.60;;;;;;6067851;23;94749;-71
2022/03/16 10:29:03;;;;;;;18.00;14.15;;;13.10;72.80;;;;;;6093274;23;92523;-71
2022/03/16 10:31:31;;;;;;;20.27;15.45;;;13.20;71.60;;;;;;6093661;23;93343;-70
2022/03/16 10:33:59;;;;;;;15.82;12.02;;;13.20;71.60;;;;;;6093152;23;93067;-70
2022/03/16 10:36:27;;;;;;;17.77;14.10;;;13.20;71.40;;;;;;6093437;23;92733;-70
2022/03/16 10:38:58;;;;;;;18.20;13.70;;;13.20;70.90;;;;;;6094897;23;92413;-70
2022/03/16 10:47:09;;;;;;;16.90;12.95;;;13.50;69.90;;;;;;6094958;23;92386;-70
2022/03/16 10:49:38;;;;;;;17.85;13.88;;;13.50;70.30;;;;;;6070979;23;92923;-70
2022/03/16 10:52:09;;;;;;;19.55;13.95;;;13.60;70.40;;;;;;6092186;23;95504;-70
2022/03/16 10:54:37;;;;;;;17.00;12.80;;;13.60;69.40;;;;;;6094854;23;95393;-71
2022/03/16 10:57:08;;;;;;;22.38;15.38;;;13.60;69.10;;;;;;6044811;23;92556;-70
2022/03/16 10:59:35;;;;;;;16.35;12.13;;;13.60;68.60;;;;;;6095252;23;92430;-70
2022/03/16 11:02:12;;;;;;;20.40;14.75;;;13.60;69.30;;;;;;6094345;23;93211;-71
2022/03/16 11:04:45;;;;;;;20.50;15.07;;;13.60;69.40;;;;;;6095033;23;92996;-71
2022/03/16 11:07:12;;;;;;;17.27;14.27;;;13.60;69.60;;;;;;6095070;23;92763;-71
2022/03/16 11:09:41;;;;;;;18.27;14.63;;;13.70;69.70;;;;;;6093836;23;91758;-71
2022/03/16 11:15:01;;;;;;;18.60;14.75;;;13.90;69.50;;;;;;6094624;23;92866;-71
2022/03/16 11:17:37;;;;;;;16.73;13.43;;;14.10;68.30;;;;;;6092192;23;94811;-71
2022/03/16 11:20:07;;;;;;;19.75;14.40;;;14.10;67.00;;;;;;6095733;23;92306;-77
2022/03/16 11:24:15;;;;;;;18.10;12.85;;;14.20;67.20;;;;;;6095407;23;93108;-76
2022/03/16 11:25:46;;;;;;;18.00;12.15;;;14.30;67.00;;;;;;6095444;23;93067;-76
2022/03/16 11:28:16;;;;;;;15.93;11.43;;;14.40;66.30;;;;;;6094172;23;92804;-76
2022/03/16 11:30:44;;;;;;;16.50;13.15;;;14.40;66.50;;;;;;6094315;23;92420;-77
2022/03/16 11:33:15;;;;;;;17.92;13.73;;;14.50;66.10;;;;;;6093599;23;94920;-76
2022/03/16 11:35:50;;;;;;;16.55;12.02;;;14.60;65.70;;;;;;6096251;23;94067;-76
2022/03/16 11:38:18;;;;;;;18.25;13.75;;;14.60;65.60;;;;;;6070654;23;92328;-71
2022/03/16 11:40:49;;;;;;;17.77;14.27;;;14.70;65.50;;;;;;6095607;23;92412;-76
2022/03/16 11:43:24;;;;;;;17.08;13.85;;;14.70;65.10;;;;;;6092419;23;95607;-76
2022/03/16 11:45:57;;;;;;;16.33;12.20;;;14.70;64.80;;;;;;6118482;23;98031;-76
2022/03/16 11:51:11;;;;;;;17.50;14.75;;;14.60;65.20;;;;;;6093638;23;92394;-75
2022/03/16 11:53:48;;;;;;;21.92;14.50;;;14.70;65.10;;;;;;6095429;23;93250;-75
2022/03/16 11:56:21;;;;;;;19.23;11.57;;;14.90;64.50;;;;;;6095168;23;92889;-75
2022/03/16 11:58:49;;;;;;;;;;;14.80;64.40;;;;;;6095918;23;92334;-75
2022/03/16 12:01:39;;;;;;;19.02;13.35;;;14.80;63.70;;;;;;6095935;23;91695;-75
2022/03/16 12:04:12;;;;;;;17.30;13.15;;;14.90;63.70;;;;;;6095300;23;93174;-76
2022/03/16 12:07:05;;;;;;;17.15;12.93;;;14.80;64.10;;;;;;6095350;23;92889;-75
2022/03/16 12:09:38;;;;;;;16.02;11.98;;;14.90;63.70;;;;;;6092174;23;94799;-77
2022/03/16 12:15:11;;;;;;;16.40;12.85;;;14.80;63.70;;;;;;6095077;23;93252;-77
2022/03/16 12:17:40;;;;;;;15.93;12.52;;;14.80;63.00;;;;;;6093657;23;95731;-71
2022/03/16 12:20:23;;;;;;;17.45;12.60;;;14.80;63.00;;;;;;6092979;23;95368;-77
2022/03/16 12:22:58;;;;;;;18.02;13.70;;;14.90;63.70;;;;;;6095448;23;92467;-77
2022/03/16 12:25:26;;;;;;;18.20;13.10;;;14.90;62.80;;;;;;6093596;23;93152;-76
2022/03/16 12:31:03;;;;;;;18.08;13.60;;;15.00;62.60;;;;;;6093724;23;92391;-76
2022/03/16 12:33:32;;;;;;;17.58;12.93;;;15.00;62.00;;;;;;6095455;23;92319;-76
2022/03/16 12:36:07;;;;;;;17.20;12.50;;;15.10;62.60;;;;;;6093675;23;95591;-71
2022/03/16 12:38:37;;;;;;;18.10;13.85;;;15.20;62.50;;;;;;6094386;23;95417;-71
2022/03/16 12:43:56;;;;;;;18.27;13.13;;;15.20;61.90;;;;;;6093006;23;92398;-71
2022/03/16 12:46:32;;;;;;;18.02;12.02;;;15.30;61.90;;;;;;6093449;23;93758;-71
2022/03/16 12:49:12;;;;;;;17.88;10.98;;;15.30;62.00;;;;;;6095647;23;93076;-71
2022/03/16 12:51:51;;;;;;;14.65;10.15;;;15.30;61.20;;;;;;6094312;23;92482;-71
2022/03/16 12:54:26;;;;;;;13.15;11.07;;;15.40;61.30;;;;;;6095860;23;91643;-71
2022/03/16 12:57:03;;;;;;;15.43;10.48;;;15.40;59.40;;;;;;6095542;23;93352;-71
2022/03/16 12:59:46;;;;;;;14.70;11.45;;;15.40;59.70;;;;;;6093665;23;95672;-71
2022/03/16 13:02:17;;;;;;;14.07;10.75;;;15.40;60.20;;;;;;6091714;23;94872;-71